createdAt,value
2023-11-27T00:01:06.010Z,3.53
2023-11-27T00:03:36.490Z,3.54
2023-11-27T00:06:09.326Z,3.51
2023-11-27T00:08:43.290Z,3.50
2023-11-27T00:11:12.456Z,3.48
2023-11-27T00:13:43.509Z,3.47
2023-11-27T00:16:16.770Z,3.47
2023-11-27T00:18:54.151Z,3.52
2023-11-27T00:21:29.320Z,3.44
2023-11-27T00:24:03.777Z,3.41
2023-11-27T00:26:37.938Z,3.40
2023-11-27T00:29:08.965Z,3.34
2023-11-27T00:31:47.661Z,3.38
2023-11-27T00:34:16.169Z,3.39
2023-11-27T00:36:49.241Z,3.34
2023-11-27T00:39:23.076Z,3.33
2023-11-27T00:41:54.299Z,3.33
2023-11-27T00:44:22.374Z,3.31
2023-11-27T00:46:53.091Z,3.31
2023-11-27T00:49:21.992Z,3.29
2023-11-27T00:52:06.766Z,3.28
2023-11-27T00:54:38.842Z,3.21
2023-11-27T00:57:07.332Z,3.23
2023-11-27T00:59:40.701Z,3.21
2023-11-27T01:02:09.694Z,3.18
2023-11-27T01:04:40.165Z,3.30
2023-11-27T01:07:12.784Z,3.23
2023-11-27T01:09:43.246Z,3.28
2023-11-27T01:12:13.375Z,3.22
2023-11-27T01:14:43.968Z,3.22
2023-11-27T01:17:15.335Z,3.19
2023-11-27T01:19:58.162Z,3.18
2023-11-27T01:22:32.030Z,3.18
2023-11-27T01:25:16.733Z,3.19
2023-11-27T01:27:50.668Z,3.21
2023-11-27T01:30:20.148Z,3.14
2023-11-27T01:32:56.247Z,3.14
2023-11-27T01:35:33.445Z,3.15
2023-11-27T01:38:14.376Z,3.13
2023-11-27T01:40:51.079Z,3.13
2023-11-27T01:43:19.707Z,3.16
2023-11-27T01:45:54.557Z,3.13
2023-11-27T01:48:24.212Z,3.14
2023-11-27T01:50:55.340Z,3.15
2023-11-27T01:53:25.295Z,3.14
2023-11-27T01:55:53.433Z,3.11
2023-11-27T01:58:21.768Z,3.09
2023-11-27T02:01:04.698Z,3.06
2023-11-27T02:03:35.606Z,3.03
2023-11-27T02:06:06.332Z,3.04
2023-11-27T02:08:39.220Z,3.10
2023-11-27T02:11:20.901Z,3.07
2023-11-27T02:13:52.241Z,3.07
2023-11-27T02:16:21.799Z,3.09
2023-11-27T02:18:53.139Z,3.07
2023-11-27T02:21:22.554Z,3.05
2023-11-27T02:23:53.264Z,3.05
2023-11-27T02:26:21.365Z,3.08
2023-11-27T02:28:51.474Z,3.03
2023-11-27T02:31:28.839Z,3.01
2023-11-27T02:34:05.664Z,3.02
2023-11-27T02:36:38.924Z,3.01
2023-11-27T02:39:21.899Z,2.99
2023-11-27T02:41:53.087Z,2.99
2023-11-27T02:44:22.888Z,3.00
2023-11-27T02:46:54.230Z,2.96
2023-11-27T02:49:23.233Z,2.95
2023-11-27T02:52:12.614Z,2.95
2023-11-27T02:54:42.694Z,2.94
2023-11-27T02:57:17.585Z,2.97
2023-11-27T02:59:49.196Z,2.89
2023-11-27T03:02:21.992Z,2.90
2023-11-27T03:04:52.235Z,2.88
2023-11-27T03:07:26.434Z,2.89
2023-11-27T03:09:58.218Z,2.84
2023-11-27T03:12:31.406Z,2.80
2023-11-27T03:15:00.520Z,2.80
2023-11-27T03:17:31.882Z,2.81
2023-11-27T03:20:00.434Z,2.77
2023-11-27T03:22:28.539Z,2.78
2023-11-27T03:24:58.883Z,2.78
2023-11-27T03:27:46.193Z,2.76
2023-11-27T03:30:16.729Z,2.70
2023-11-27T03:32:47.757Z,2.71
2023-11-27T03:35:23.605Z,2.62
2023-11-27T03:37:52.803Z,2.57
2023-11-27T03:40:22.280Z,2.56
2023-11-27T03:42:57.224Z,2.56
2023-11-27T03:45:25.353Z,2.53
2023-11-27T03:47:53.869Z,2.51
2023-11-27T03:50:22.002Z,2.46
2023-11-27T03:52:50.044Z,2.44
2023-11-27T03:55:22.754Z,2.42
2023-11-27T03:57:59.548Z,2.38
2023-11-27T04:00:28.557Z,2.38
2023-11-27T04:03:18.130Z,2.37
2023-11-27T04:05:51.486Z,2.31
2023-11-27T04:08:19.641Z,2.29
2023-11-27T04:10:50.878Z,2.26
2023-11-27T04:13:19.876Z,2.21
2023-11-27T04:15:49.318Z,2.18
2023-11-27T04:18:18.775Z,2.14
2023-11-27T04:20:47.386Z,2.10
2023-11-27T04:23:15.540Z,2.08
2023-11-27T04:25:46.212Z,2.07
2023-11-27T04:28:16.094Z,2.04
2023-11-27T04:30:47.613Z,2.03
2023-11-27T04:33:16.913Z,2.07
2023-11-27T04:35:46.132Z,2.03
2023-11-27T04:38:14.678Z,1.99
2023-11-27T04:40:46.314Z,1.91
2023-11-27T04:43:15.718Z,1.85
2023-11-27T04:45:45.979Z,1.83
2023-11-27T04:48:15.063Z,1.84
2023-11-27T04:50:45.119Z,1.83
2023-11-27T04:53:16.485Z,1.78
2023-11-27T04:55:44.541Z,1.80
2023-11-27T04:58:26.697Z,1.80
2023-11-27T05:00:54.816Z,1.81
2023-11-27T05:03:22.845Z,1.77
2023-11-27T05:05:51.908Z,1.79
2023-11-27T05:08:20.237Z,1.77
2023-11-27T05:10:50.539Z,1.77
2023-11-27T05:13:19.297Z,1.77
2023-11-27T05:15:48.843Z,1.81
2023-11-27T05:18:18.583Z,1.72
2023-11-27T05:20:47.038Z,1.76
2023-11-27T05:23:15.202Z,1.72
2023-11-27T05:25:43.953Z,1.68
2023-11-27T05:28:12.944Z,1.72
2023-11-27T05:30:41.046Z,1.72
2023-11-27T05:33:11.113Z,1.69
2023-11-27T05:36:03.056Z,1.71
2023-11-27T05:38:31.089Z,1.66
2023-11-27T05:41:02.232Z,1.67
2023-11-27T05:43:35.141Z,1.70
2023-11-27T05:46:11.407Z,1.64
2023-11-27T05:48:44.521Z,1.69
2023-11-27T05:51:12.694Z,1.69
2023-11-27T05:53:40.714Z,1.69
2023-11-27T05:56:11.202Z,1.68
2023-11-27T05:58:39.232Z,1.67
2023-11-27T06:01:12.595Z,1.64
2023-11-27T06:03:46.626Z,1.65
2023-11-27T06:06:21.567Z,1.65
2023-11-27T06:08:51.241Z,1.67
2023-11-27T06:11:29.855Z,1.67
2023-11-27T06:13:58.081Z,1.72
2023-11-27T06:16:30.701Z,1.66
2023-11-27T06:19:11.606Z,1.66
2023-11-27T06:21:51.038Z,1.68
2023-11-27T06:24:20.107Z,1.69
2023-11-27T06:26:49.148Z,1.70
2023-11-27T06:29:41.384Z,1.69
2023-11-27T06:32:11.674Z,1.66
2023-11-27T06:34:42.032Z,1.66
2023-11-27T06:37:10.233Z,1.66
2023-11-27T06:39:40.702Z,1.68
2023-11-27T06:42:34.868Z,1.63
2023-11-27T06:45:18.938Z,1.65
2023-11-27T06:48:02.937Z,1.66
2023-11-27T06:50:38.505Z,1.67
2023-11-27T06:53:13.669Z,1.69
2023-11-27T06:55:41.739Z,1.69
2023-11-27T06:58:09.881Z,1.71
2023-11-27T07:00:39.453Z,1.69
2023-11-27T07:03:09.945Z,1.69
2023-11-27T07:05:42.394Z,1.65
2023-11-27T07:08:10.547Z,1.64
2023-11-27T07:10:40.453Z,1.66
2023-11-27T07:13:11.860Z,1.70
2023-11-27T07:15:39.995Z,1.70
2023-11-27T07:18:16.791Z,1.80
2023-11-27T07:20:58.776Z,1.82
2023-11-27T07:23:28.174Z,1.80
2023-11-27T07:26:00.937Z,1.83
2023-11-27T07:28:29.068Z,1.85
2023-11-27T07:31:02.928Z,1.89
2023-11-27T07:33:31.073Z,1.94
2023-11-27T07:36:01.967Z,1.91
2023-11-27T07:38:41.118Z,1.90
2023-11-27T07:41:10.052Z,1.91
2023-11-27T07:43:38.776Z,1.93
2023-11-27T07:46:12.348Z,1.96
2023-11-27T07:48:43.333Z,1.97
2023-11-27T07:51:13.374Z,2.04
2023-11-27T07:53:41.960Z,2.02
2023-11-27T07:56:12.278Z,2.04
2023-11-27T07:58:42.414Z,2.03
2023-11-27T08:01:15.177Z,2.05
2023-11-27T08:03:47.259Z,2.03
2023-11-27T08:06:21.343Z,2.10
2023-11-27T08:08:55.228Z,2.08
2023-11-27T08:11:32.351Z,2.08
2023-11-27T08:14:00.777Z,2.07
2023-11-27T08:16:33.686Z,2.04
2023-11-27T08:19:03.755Z,2.00
2023-11-27T08:21:33.876Z,2.09
2023-11-27T08:24:02.013Z,2.05
2023-11-27T08:26:41.216Z,2.09
2023-11-27T08:29:09.782Z,2.10
2023-11-27T08:31:38.381Z,2.03
2023-11-27T08:34:07.599Z,2.07
2023-11-27T08:36:40.596Z,2.10
2023-11-27T08:39:13.446Z,2.04
2023-11-27T08:41:41.687Z,2.06
2023-11-27T08:44:10.353Z,2.09
2023-11-27T08:46:38.600Z,2.06
2023-11-27T08:49:13.989Z,2.06
2023-11-27T08:51:50.032Z,2.11
2023-11-27T08:54:20.384Z,2.09
2023-11-27T08:56:57.339Z,1.99
2023-11-27T08:59:26.420Z,2.02
2023-11-27T09:01:57.646Z,2.00
2023-11-27T09:04:28.846Z,1.97
2023-11-27T09:06:58.885Z,1.99
2023-11-27T09:09:27.038Z,1.98
2023-11-27T09:11:55.966Z,1.99
2023-11-27T09:14:24.002Z,1.98
2023-11-27T09:16:56.767Z,1.97
2023-11-27T09:19:28.359Z,1.94
2023-11-27T09:21:58.013Z,1.96
2023-11-27T09:24:28.342Z,1.94
2023-11-27T09:26:57.337Z,1.88
2023-11-27T09:29:25.456Z,1.87
2023-11-27T09:31:56.678Z,1.86
2023-11-27T09:34:29.202Z,1.81
2023-11-27T09:37:02.859Z,1.76
2023-11-27T09:39:39.906Z,1.73
2023-11-27T09:42:09.727Z,1.73
2023-11-27T09:44:38.285Z,1.65
2023-11-27T09:47:14.409Z,1.61
2023-11-27T09:49:52.539Z,1.58
2023-11-27T09:52:28.966Z,1.50
2023-11-27T09:55:06.951Z,1.36
2023-11-27T09:57:47.852Z,1.39
2023-11-27T10:00:20.093Z,1.25
2023-11-27T10:02:53.227Z,1.29
2023-11-27T10:05:26.137Z,1.14
2023-11-27T10:08:01.674Z,1.16
2023-11-27T10:10:37.781Z,1.06
2023-11-27T10:13:32.664Z,1.02
2023-11-27T10:16:10.538Z,0.93
2023-11-27T10:18:39.594Z,0.88
2023-11-27T10:21:11.515Z,0.87
2023-11-27T10:23:43.517Z,0.88
2023-11-27T10:26:14.280Z,0.70
2023-11-27T10:29:04.532Z,0.62
2023-11-27T10:31:39.353Z,0.54
2023-11-27T10:34:12.298Z,0.57
2023-11-27T10:36:40.669Z,0.47
2023-11-27T10:39:16.776Z,0.33
2023-11-27T10:41:47.747Z,0.28
2023-11-27T10:44:19.267Z,0.34
2023-11-27T10:46:48.529Z,0.33
2023-11-27T10:49:19.304Z,0.24
2023-11-27T10:51:48.964Z,0.23
2023-11-27T10:54:18.409Z,0.19
2023-11-27T10:56:50.252Z,0.22
2023-11-27T10:59:23.210Z,0.19
2023-11-27T11:02:00.021Z,0.22
2023-11-27T11:04:36.618Z,0.18
2023-11-27T11:07:10.990Z,0.17
2023-11-27T11:09:45.721Z,0.19
2023-11-27T11:12:20.261Z,0.22
2023-11-27T11:14:49.615Z,0.20
2023-11-27T11:17:31.045Z,0.27
2023-11-27T11:20:15.016Z,0.22
2023-11-27T11:22:57.339Z,0.21
2023-11-27T11:25:33.141Z,0.19
2023-11-27T11:28:13.329Z,0.25
2023-11-27T11:30:41.737Z,0.23
2023-11-27T11:33:20.102Z,0.30
2023-11-27T11:35:52.145Z,0.25
2023-11-27T11:38:27.691Z,0.27
2023-11-27T11:40:56.036Z,0.23
2023-11-27T11:43:27.979Z,0.25
2023-11-27T11:45:58.280Z,0.31
2023-11-27T11:48:38.738Z,0.25
2023-11-27T11:51:16.881Z,0.27
2023-11-27T11:53:49.410Z,0.25
2023-11-27T11:56:27.199Z,0.27
2023-11-27T11:59:01.836Z,0.27
2023-11-27T12:01:33.863Z,0.27
2023-11-27T12:04:07.446Z,0.30
2023-11-27T12:06:36.715Z,0.29
2023-11-27T12:09:05.255Z,0.33
2023-11-27T12:11:36.253Z,0.28
2023-11-27T12:14:33.887Z,0.30
2023-11-27T12:17:03.677Z,0.28
2023-11-27T12:19:34.365Z,0.32
2023-11-27T12:22:06.326Z,0.34
2023-11-27T12:24:34.396Z,0.34
2023-11-27T12:27:08.146Z,0.34
2023-11-27T12:29:40.356Z,0.32
2023-11-27T12:32:10.427Z,0.39
2023-11-27T12:34:42.199Z,0.44
2023-11-27T12:37:11.597Z,0.45
2023-11-27T12:39:39.780Z,0.52
2023-11-27T12:42:15.669Z,0.51
2023-11-27T12:44:51.232Z,0.37
2023-11-27T12:47:22.905Z,0.34
2023-11-27T12:49:54.350Z,0.29
2023-11-27T12:52:25.563Z,0.29
2023-11-27T12:54:56.852Z,0.25
2023-11-27T12:57:27.347Z,0.18
2023-11-27T12:59:58.661Z,0.18
2023-11-27T13:02:32.258Z,0.13
2023-11-27T13:05:00.884Z,0.09
2023-11-27T13:07:28.991Z,0.05
2023-11-27T13:10:08.669Z,0.02
2023-11-27T13:12:37.100Z,0.02
2023-11-27T13:15:11.682Z,0.06
2023-11-27T13:17:40.844Z,0.06
2023-11-27T13:20:19.254Z,0.17
2023-11-27T13:22:47.455Z,0.16
2023-11-27T13:25:17.027Z,0.19
2023-11-27T13:27:48.347Z,0.18
2023-11-27T13:30:29.156Z,0.24
2023-11-27T13:33:00.347Z,0.25
2023-11-27T13:35:33.844Z,0.24
2023-11-27T13:38:06.550Z,0.28
2023-11-27T13:40:36.749Z,0.29
2023-11-27T13:43:15.912Z,0.27
2023-11-27T13:45:52.669Z,0.25
2023-11-27T13:48:24.160Z,0.25
2023-11-27T13:50:58.670Z,0.24
2023-11-27T13:53:28.044Z,0.29
2023-11-27T13:56:04.467Z,0.28
2023-11-27T13:58:46.145Z,0.31
2023-11-27T14:01:20.457Z,0.39
2023-11-27T14:04:00.163Z,0.38
2023-11-27T14:06:29.961Z,0.37
2023-11-27T14:09:05.214Z,0.36
2023-11-27T14:11:35.921Z,0.30
2023-11-27T14:14:09.459Z,0.32
2023-11-27T14:17:16.233Z,0.35
2023-11-27T14:20:01.891Z,0.37
2023-11-27T14:23:01.679Z,0.37
2023-11-27T14:25:51.230Z,0.34
2023-11-27T14:28:32.313Z,0.13
2023-11-27T14:31:03.715Z,-0.01
2023-11-27T14:33:35.824Z,-0.01
2023-11-27T14:36:05.246Z,-0.04
2023-11-27T14:38:33.479Z,-0.11
2023-11-27T14:41:02.028Z,-0.27
2023-11-27T14:43:34.274Z,-0.23
2023-11-27T14:46:13.583Z,-0.20
2023-11-27T14:48:44.788Z,-0.16
2023-11-27T14:51:12.904Z,-0.14
2023-11-27T14:53:54.013Z,-0.19
2023-11-27T14:56:29.582Z,-0.02
2023-11-27T14:59:09.230Z,-0.15
2023-11-27T15:01:44.045Z,-0.21
2023-11-27T15:04:17.327Z,-0.23
2023-11-27T15:06:47.521Z,-0.26
2023-11-27T15:09:23.593Z,-0.16
2023-11-27T15:11:55.194Z,-0.26
2023-11-27T15:14:24.899Z,-0.14
2023-11-27T15:16:56.158Z,-0.17
2023-11-27T15:19:28.990Z,-0.21
2023-11-27T15:21:59.459Z,-0.30
2023-11-27T15:24:38.497Z,-0.37
2023-11-27T15:27:08.431Z,-0.31
2023-11-27T15:29:37.340Z,-0.36
2023-11-27T15:32:09.210Z,-0.38
2023-11-27T15:34:43.071Z,-0.40
2023-11-27T15:37:11.322Z,-0.41
2023-11-27T15:39:47.379Z,-0.37
2023-11-27T15:45:00.755Z,-0.37
2023-11-27T15:47:29.422Z,-0.40
2023-11-27T15:50:01.986Z,-0.37
2023-11-27T15:52:47.834Z,-0.43
2023-11-27T15:55:38.969Z,-0.48
2023-11-27T15:58:07.659Z,-0.43
2023-11-27T16:00:43.436Z,-0.41
2023-11-27T16:03:18.465Z,-0.39
2023-11-27T16:05:50.417Z,-0.49
2023-11-27T16:08:19.720Z,-0.50
2023-11-27T16:10:52.273Z,-0.49
2023-11-27T16:13:23.163Z,-0.46
2023-11-27T16:15:56.014Z,-0.49
2023-11-27T16:18:40.664Z,-0.53
2023-11-27T16:21:16.343Z,-0.54
2023-11-27T16:23:45.262Z,-0.54
2023-11-27T16:26:13.519Z,-0.58
2023-11-27T16:28:43.728Z,-0.63
2023-11-27T16:31:14.009Z,-0.59
2023-11-27T16:33:42.123Z,-0.57
2023-11-27T16:36:14.304Z,-0.56
2023-11-27T16:38:42.406Z,-0.62
2023-11-27T16:41:10.482Z,-0.57
2023-11-27T16:43:45.928Z,-0.53
2023-11-27T16:46:15.055Z,-0.45
2023-11-27T16:48:43.341Z,-0.49
2023-11-27T16:51:13.966Z,-0.58
2023-11-27T16:53:42.171Z,-0.53
2023-11-27T16:56:11.108Z,-0.51
2023-11-27T16:58:40.094Z,-0.52
2023-11-27T17:01:08.226Z,-0.57
2023-11-27T17:03:38.657Z,-0.63
2023-11-27T17:06:10.280Z,-0.48
2023-11-27T17:08:39.832Z,-0.44
2023-11-27T17:11:09.185Z,-0.46
2023-11-27T17:13:39.131Z,-0.44
2023-11-27T17:16:08.081Z,-0.49
2023-11-27T17:18:36.790Z,-0.49
2023-11-27T17:21:06.579Z,-0.53
2023-11-27T17:23:36.343Z,-0.56
2023-11-27T17:26:07.001Z,-0.64
2023-11-27T17:28:35.217Z,-0.57
2023-11-27T17:31:03.402Z,-0.58
2023-11-27T17:33:33.026Z,-0.52
2023-11-27T17:36:01.077Z,-0.42
2023-11-27T17:38:35.554Z,-0.58
2023-11-27T17:41:06.099Z,-0.44
2023-11-27T17:43:35.175Z,-0.43
2023-11-27T17:46:04.422Z,-0.58
2023-11-27T17:48:33.386Z,-0.49
2023-11-27T17:51:01.684Z,-0.50
2023-11-27T17:53:30.856Z,-0.47
2023-11-27T17:56:04.596Z,-0.56
2023-11-27T17:58:35.993Z,-0.46
2023-11-27T18:01:06.879Z,-0.50
2023-11-27T18:03:36.793Z,-0.53
2023-11-27T18:06:05.309Z,-0.55
2023-11-27T18:08:36.242Z,-0.63
2023-11-27T18:11:07.384Z,-0.64
2023-11-27T18:13:40.889Z,-0.60
2023-11-27T18:16:11.569Z,-0.55
2023-11-27T18:18:40.942Z,-0.51
2023-11-27T18:21:09.784Z,-0.49
2023-11-27T18:23:38.485Z,-0.52
2023-11-27T18:26:10.052Z,-0.49
2023-11-27T18:28:39.661Z,-0.57
2023-11-27T18:31:08.247Z,-0.64
2023-11-27T18:33:40.304Z,-0.56
2023-11-27T18:36:13.081Z,-0.54
2023-11-27T18:38:43.324Z,-0.56
2023-11-27T18:41:11.597Z,-0.62
2023-11-27T18:43:42.195Z,-0.65
2023-11-27T18:46:11.011Z,-0.66
2023-11-27T18:48:39.041Z,-0.58
2023-11-27T18:51:07.912Z,-0.52
2023-11-27T18:53:36.771Z,-0.58
2023-11-27T18:56:06.160Z,-0.55
2023-11-27T18:58:34.603Z,-0.65
2023-11-27T19:01:10.676Z,-0.66
2023-11-27T19:03:38.771Z,-0.59
2023-11-27T19:06:08.055Z,-0.51
2023-11-27T19:08:37.587Z,-0.48
2023-11-27T19:11:08.770Z,-0.54
2023-11-27T19:13:37.531Z,-0.44
2023-11-27T19:16:12.832Z,-0.48
2023-11-27T19:18:45.118Z,-0.47
2023-11-27T19:21:16.675Z,-0.46
2023-11-27T19:23:45.909Z,-0.50
2023-11-27T19:26:16.422Z,-0.46
2023-11-27T19:28:49.121Z,-0.49
2023-11-27T19:31:32.662Z,-0.55
2023-11-27T19:34:04.290Z,-0.63
2023-11-27T19:36:32.650Z,-0.62
2023-11-27T19:39:08.360Z,-0.59
2023-11-27T19:41:39.263Z,-0.60
2023-11-27T19:44:18.565Z,-0.58
2023-11-27T19:46:50.242Z,-0.52
2023-11-27T19:49:23.011Z,-0.51
2023-11-27T19:51:52.295Z,-0.53
2023-11-27T19:54:21.116Z,-0.48
2023-11-27T19:56:49.356Z,-0.53
2023-11-27T19:59:17.484Z,-0.52
2023-11-27T20:01:47.533Z,-0.50
2023-11-27T20:04:15.764Z,-0.49
2023-11-27T20:06:47.840Z,-0.48
2023-11-27T20:09:16.946Z,-0.45
2023-11-27T20:11:45.708Z,-0.48
2023-11-27T20:14:16.436Z,-0.40
2023-11-27T20:16:45.065Z,-0.44
2023-11-27T20:19:16.196Z,-0.46
2023-11-27T20:21:44.941Z,-0.43
2023-11-27T20:24:13.596Z,-0.48
2023-11-27T20:29:48.951Z,-0.46
2023-11-27T20:32:17.619Z,-0.43
2023-11-27T20:34:47.279Z,-0.37
2023-11-27T20:37:16.031Z,-0.44
2023-11-27T20:39:46.296Z,-0.37
2023-11-27T20:42:15.036Z,-0.42
2023-11-27T20:44:56.054Z,-0.40
2023-11-27T20:47:28.342Z,-0.37
2023-11-27T20:49:58.311Z,-0.29
2023-11-27T20:52:28.039Z,-0.35
2023-11-27T20:55:05.896Z,-0.33
2023-11-27T20:57:37.571Z,-0.40
2023-11-27T21:00:24.089Z,-0.43
2023-11-27T21:02:56.083Z,-0.42
2023-11-27T21:05:49.782Z,-0.37
2023-11-27T21:08:22.556Z,-0.37
2023-11-27T21:11:09.679Z,-0.39
2023-11-27T21:13:38.391Z,-0.43
2023-11-27T21:16:07.283Z,-0.47
2023-11-27T21:19:10.217Z,-0.47
2023-11-27T21:21:45.842Z,-0.49
2023-11-27T21:24:19.302Z,-0.51
2023-11-27T21:26:47.384Z,-0.51
2023-11-27T21:29:15.416Z,-0.56
2023-11-27T21:32:07.563Z,-0.46
2023-11-27T21:34:51.210Z,-0.54
2023-11-27T21:37:27.743Z,-0.49
2023-11-27T21:40:46.862Z,-0.49
2023-11-27T21:43:15.957Z,-0.43
2023-11-27T21:46:01.602Z,-0.50
2023-11-27T21:48:56.697Z,-0.50
2023-11-27T21:51:25.853Z,-0.51
2023-11-27T21:53:55.405Z,-0.61
2023-11-27T22:00:10.956Z,-0.51
2023-11-27T22:05:53.960Z,-0.48
2023-11-27T22:08:30.569Z,-0.48
2023-11-27T22:11:00.086Z,-0.52
2023-11-27T22:13:28.263Z,-0.54
2023-11-27T22:15:58.777Z,-0.51
2023-11-27T22:18:26.812Z,-0.55
2023-11-27T22:20:55.720Z,-0.52
2023-11-27T22:24:17.014Z,-0.49
2023-11-27T22:29:48.184Z,-0.58
2023-11-27T22:32:34.185Z,-0.54
2023-11-27T22:41:13.777Z,-0.60
2023-11-27T22:44:33.728Z,-0.60
2023-11-27T22:53:17.712Z,-0.58
2023-11-27T22:56:22.102Z,-0.62
2023-11-27T22:59:16.518Z,-0.57
2023-11-27T23:02:14.614Z,-0.60
2023-11-27T23:05:01.127Z,-0.57
2023-11-27T23:08:09.161Z,-0.62
2023-11-27T23:23:14.042Z,-0.62
2023-11-27T23:25:51.879Z,-0.68
2023-11-27T23:31:14.382Z,-0.66
2023-11-27T23:34:39.192Z,-0.64
2023-11-27T23:37:34.140Z,-0.69
2023-11-27T23:40:16.307Z,-0.65
2023-11-27T23:46:00.156Z,-0.67
2023-11-27T23:48:56.513Z,-0.57
2023-11-27T23:52:14.787Z,-0.65
2023-11-27T23:55:10.935Z,-0.60
2023-11-27T23:57:42.823Z,-0.57
